sensor_id;sensor_type;location;lat;lon;timestamp;pressure;altitude;pressure_sealevel;temperature
20733;BMP180;10527;52.124;5.196;2022-11-03T00:02:01;101216.00;;;21.90
20733;BMP180;10527;52.124;5.196;2022-11-03T00:04:28;101202.00;;;21.90
20733;BMP180;10527;52.124;5.196;2022-11-03T00:06:55;101197.00;;;21.90
20733;BMP180;10527;52.124;5.196;2022-11-03T00:09:23;101181.00;;;21.90
20733;BMP180;10527;52.124;5.196;2022-11-03T00:11:52;101177.00;;;21.80
20733;BMP180;10527;52.124;5.196;2022-11-03T00:14:19;101177.00;;;21.80
20733;BMP180;10527;52.124;5.196;2022-11-03T00:16:46;101172.00;;;21.80
20733;BMP180;10527;52.124;5.196;2022-11-03T00:19:14;101171.00;;;21.80
20733;BMP180;10527;52.124;5.196;2022-11-03T00:21:43;101177.00;;;21.80
20733;BMP180;10527;52.124;5.196;2022-11-03T00:24:15;101165.00;;;21.80
20733;BMP180;10527;52.124;5.196;2022-11-03T00:26:42;101161.00;;;21.80
20733;BMP180;10527;52.124;5.196;2022-11-03T00:29:13;101144.00;;;21.80
20733;BMP180;10527;52.124;5.196;2022-11-03T00:31:43;101143.00;;;21.80
20733;BMP180;10527;52.124;5.196;2022-11-03T00:34:10;101146.00;;;21.80
20733;BMP180;10527;52.124;5.196;2022-11-03T00:36:43;101145.00;;;21.70
20733;BMP180;10527;52.124;5.196;2022-11-03T00:39:11;101143.00;;;21.70
20733;BMP180;10527;52.124;5.196;2022-11-03T00:41:39;101141.00;;;21.70
20733;BMP180;10527;52.124;5.196;2022-11-03T00:44:06;101135.00;;;21.70
20733;BMP180;10527;52.124;5.196;2022-11-03T00:46:34;101138.00;;;21.70
20733;BMP180;10527;52.124;5.196;2022-11-03T00:49:03;101138.00;;;21.70
20733;BMP180;10527;52.124;5.196;2022-11-03T00:51:33;101134.00;;;21.70
20733;BMP180;10527;52.124;5.196;2022-11-03T00:54:05;101130.00;;;21.70
20733;BMP180;10527;52.124;5.196;2022-11-03T00:56:36;101129.00;;;21.70
20733;BMP180;10527;52.124;5.196;2022-11-03T00:59:06;101134.00;;;21.70
20733;BMP180;10527;52.124;5.196;2022-11-03T01:01:41;101139.00;;;21.70
20733;BMP180;10527;52.124;5.196;2022-11-03T01:04:16;101140.00;;;21.60
20733;BMP180;10527;52.124;5.196;2022-11-03T01:07:04;101135.00;;;21.60
20733;BMP180;10527;52.124;5.196;2022-11-03T01:09:40;101121.00;;;21.60
20733;BMP180;10527;52.124;5.196;2022-11-03T01:12:16;101119.00;;;21.60
20733;BMP180;10527;52.124;5.196;2022-11-03T01:14:47;101119.00;;;21.60
20733;BMP180;10527;52.124;5.196;2022-11-03T01:17:21;101121.00;;;21.60
20733;BMP180;10527;52.124;5.196;2022-11-03T01:19:49;101116.00;;;21.60
20733;BMP180;10527;52.124;5.196;2022-11-03T01:22:18;101111.00;;;21.60
20733;BMP180;10527;52.124;5.196;2022-11-03T01:24:45;101103.00;;;21.60
20733;BMP180;10527;52.124;5.196;2022-11-03T01:27:16;101099.00;;;21.60
20733;BMP180;10527;52.124;5.196;2022-11-03T01:29:44;101100.00;;;21.60
20733;BMP180;10527;52.124;5.196;2022-11-03T01:32:11;101094.00;;;21.60
20733;BMP180;10527;52.124;5.196;2022-11-03T01:34:42;101096.00;;;21.60
20733;BMP180;10527;52.124;5.196;2022-11-03T01:37:08;101091.00;;;21.60
20733;BMP180;10527;52.124;5.196;2022-11-03T01:39:35;101092.00;;;21.60
20733;BMP180;10527;52.124;5.196;2022-11-03T01:42:02;101077.00;;;21.60
20733;BMP180;10527;52.124;5.196;2022-11-03T01:44:36;101081.00;;;21.60
20733;BMP180;10527;52.124;5.196;2022-11-03T01:47:19;101080.00;;;21.60
20733;BMP180;10527;52.124;5.196;2022-11-03T01:50:18;101076.00;;;21.60
20733;BMP180;10527;52.124;5.196;2022-11-03T01:52:51;101073.00;;;21.60
20733;BMP180;10527;52.124;5.196;2022-11-03T01:55:23;101063.00;;;21.60
20733;BMP180;10527;52.124;5.196;2022-11-03T01:58:19;101071.00;;;21.60
20733;BMP180;10527;52.124;5.196;2022-11-03T02:01:00;101069.00;;;21.60
20733;BMP180;10527;52.124;5.196;2022-11-03T02:03:33;101069.00;;;21.60
20733;BMP180;10527;52.124;5.196;2022-11-03T02:06:03;101063.00;;;21.60
20733;BMP180;10527;52.124;5.196;2022-11-03T02:08:46;101051.00;;;21.60
20733;BMP180;10527;52.124;5.196;2022-11-03T02:11:16;101039.00;;;21.60
20733;BMP180;10527;52.124;5.196;2022-11-03T02:14:03;101046.00;;;21.50
20733;BMP180;10527;52.124;5.196;2022-11-03T02:16:50;101045.00;;;21.60
20733;BMP180;10527;52.124;5.196;2022-11-03T02:19:48;101045.00;;;21.50
20733;BMP180;10527;52.124;5.196;2022-11-03T02:23:05;101044.00;;;21.50
20733;BMP180;10527;52.124;5.196;2022-11-03T02:25:54;101036.00;;;21.50
20733;BMP180;10527;52.124;5.196;2022-11-03T02:28:29;101045.00;;;21.50
20733;BMP180;10527;52.124;5.196;2022-11-03T02:31:37;101032.00;;;21.50
20733;BMP180;10527;52.124;5.196;2022-11-03T02:34:46;101019.00;;;21.60
20733;BMP180;10527;52.124;5.196;2022-11-03T02:37:19;101013.00;;;21.50
20733;BMP180;10527;52.124;5.196;2022-11-03T02:40:13;101014.00;;;21.50
20733;BMP180;10527;52.124;5.196;2022-11-03T02:42:46;101006.00;;;21.60
20733;BMP180;10527;52.124;5.196;2022-11-03T02:45:18;101002.00;;;21.60
20733;BMP180;10527;52.124;5.196;2022-11-03T02:47:49;101004.00;;;21.60
20733;BMP180;10527;52.124;5.196;2022-11-03T02:50:17;100997.00;;;21.60
20733;BMP180;10527;52.124;5.196;2022-11-03T02:52:47;100979.00;;;21.60
20733;BMP180;10527;52.124;5.196;2022-11-03T03:04:07;100959.00;;;21.50
20733;BMP180;10527;52.124;5.196;2022-11-03T03:06:42;100964.00;;;21.50
20733;BMP180;10527;52.124;5.196;2022-11-03T03:09:25;100974.00;;;21.60
20733;BMP180;10527;52.124;5.196;2022-11-03T03:11:56;100959.00;;;21.60
20733;BMP180;10527;52.124;5.196;2022-11-03T03:14:31;100959.00;;;21.60
20733;BMP180;10527;52.124;5.196;2022-11-03T03:17:23;100962.00;;;21.60
20733;BMP180;10527;52.124;5.196;2022-11-03T03:20:10;100951.00;;;21.70
20733;BMP180;10527;52.124;5.196;2022-11-03T03:22:50;100953.00;;;21.70
20733;BMP180;10527;52.124;5.196;2022-11-03T03:25:40;100943.00;;;21.70
20733;BMP180;10527;52.124;5.196;2022-11-03T03:28:14;100937.00;;;21.70
20733;BMP180;10527;52.124;5.196;2022-11-03T03:30:47;100930.00;;;21.70
20733;BMP180;10527;52.124;5.196;2022-11-03T03:33:16;100928.00;;;21.70
20733;BMP180;10527;52.124;5.196;2022-11-03T03:35:47;100925.00;;;21.70
20733;BMP180;10527;52.124;5.196;2022-11-03T03:38:22;100919.00;;;21.70
20733;BMP180;10527;52.124;5.196;2022-11-03T03:40:56;100917.00;;;21.80
20733;BMP180;10527;52.124;5.196;2022-11-03T03:43:27;100924.00;;;21.80
20733;BMP180;10527;52.124;5.196;2022-11-03T03:46:02;100924.00;;;21.80
20733;BMP180;10527;52.124;5.196;2022-11-03T03:48:31;100914.00;;;21.80
20733;BMP180;10527;52.124;5.196;2022-11-03T03:51:01;100910.00;;;21.80
20733;BMP180;10527;52.124;5.196;2022-11-03T03:53:29;100912.00;;;21.80
20733;BMP180;10527;52.124;5.196;2022-11-03T03:55:58;100908.00;;;21.80
20733;BMP180;10527;52.124;5.196;2022-11-03T03:58:25;100896.00;;;21.90
20733;BMP180;10527;52.124;5.196;2022-11-03T04:00:51;100900.00;;;21.90
20733;BMP180;10527;52.124;5.196;2022-11-03T04:03:22;100902.00;;;21.90
20733;BMP180;10527;52.124;5.196;2022-11-03T04:05:50;100897.00;;;21.90
20733;BMP180;10527;52.124;5.196;2022-11-03T04:08:18;100889.00;;;21.90
20733;BMP180;10527;52.124;5.196;2022-11-03T04:10:45;100894.00;;;21.90
20733;BMP180;10527;52.124;5.196;2022-11-03T04:13:32;100893.00;;;21.90
20733;BMP180;10527;52.124;5.196;2022-11-03T04:16:17;100901.00;;;21.90
20733;BMP180;10527;52.124;5.196;2022-11-03T04:19:03;100893.00;;;21.90
20733;BMP180;10527;52.124;5.196;2022-11-03T04:21:49;100888.00;;;21.90
20733;BMP180;10527;52.124;5.196;2022-11-03T04:24:35;100879.00;;;21.90
20733;BMP180;10527;52.124;5.196;2022-11-03T04:27:22;100880.00;;;21.90
20733;BMP180;10527;52.124;5.196;2022-11-03T04:29:56;100883.00;;;21.90
20733;BMP180;10527;52.124;5.196;2022-11-03T04:32:22;100876.00;;;21.90
20733;BMP180;10527;52.124;5.196;2022-11-03T04:34:49;100871.00;;;21.90
20733;BMP180;10527;52.124;5.196;2022-11-03T04:37:16;100873.00;;;21.90
20733;BMP180;10527;52.124;5.196;2022-11-03T04:39:43;100865.00;;;21.90
20733;BMP180;10527;52.124;5.196;2022-11-03T04:42:21;100871.00;;;21.90
20733;BMP180;10527;52.124;5.196;2022-11-03T04:44:49;100861.00;;;21.90
20733;BMP180;10527;52.124;5.196;2022-11-03T04:47:17;100853.00;;;21.90
20733;BMP180;10527;52.124;5.196;2022-11-03T04:49:46;100854.00;;;21.90
20733;BMP180;10527;52.124;5.196;2022-11-03T04:52:22;100851.00;;;21.90
20733;BMP180;10527;52.124;5.196;2022-11-03T04:54:51;100853.00;;;21.90
20733;BMP180;10527;52.124;5.196;2022-11-03T04:57:19;100850.00;;;21.90
20733;BMP180;10527;52.124;5.196;2022-11-03T04:59:48;100850.00;;;21.90
20733;BMP180;10527;52.124;5.196;2022-11-03T05:02:21;100847.00;;;21.90
20733;BMP180;10527;52.124;5.196;2022-11-03T05:04:54;100828.00;;;21.90
20733;BMP180;10527;52.124;5.196;2022-11-03T05:07:33;100823.00;;;21.90
20733;BMP180;10527;52.124;5.196;2022-11-03T05:10:03;100825.00;;;21.90
20733;BMP180;10527;52.124;5.196;2022-11-03T05:12:30;100828.00;;;21.90
20733;BMP180;10527;52.124;5.196;2022-11-03T05:14:56;100828.00;;;21.90
20733;BMP180;10527;52.124;5.196;2022-11-03T05:17:27;100827.00;;;21.90
20733;BMP180;10527;52.124;5.196;2022-11-03T05:20:01;100821.00;;;21.90
20733;BMP180;10527;52.124;5.196;2022-11-03T05:22:34;100812.00;;;21.90
20733;BMP180;10527;52.124;5.196;2022-11-03T05:25:38;100804.00;;;21.90
20733;BMP180;10527;52.124;5.196;2022-11-03T05:28:36;100801.00;;;21.90
20733;BMP180;10527;52.124;5.196;2022-11-03T05:33:56;100799.00;;;21.90
20733;BMP180;10527;52.124;5.196;2022-11-03T05:36:29;100786.00;;;21.90
20733;BMP180;10527;52.124;5.196;2022-11-03T05:39:30;100796.00;;;21.90
20733;BMP180;10527;52.124;5.196;2022-11-03T05:42:00;100791.00;;;21.90
20733;BMP180;10527;52.124;5.196;2022-11-03T05:44:38;100785.00;;;21.90
20733;BMP180;10527;52.124;5.196;2022-11-03T05:47:33;100777.00;;;22.00
20733;BMP180;10527;52.124;5.196;2022-11-03T05:50:20;100789.00;;;22.00
20733;BMP180;10527;52.124;5.196;2022-11-03T05:52:56;100771.00;;;22.00
20733;BMP180;10527;52.124;5.196;2022-11-03T05:55:30;100787.00;;;22.00
20733;BMP180;10527;52.124;5.196;2022-11-03T05:58:01;100781.00;;;22.00
20733;BMP180;10527;52.124;5.196;2022-11-03T06:00:36;100784.00;;;22.00
20733;BMP180;10527;52.124;5.196;2022-11-03T06:03:17;100778.00;;;22.00
20733;BMP180;10527;52.124;5.196;2022-11-03T06:05:46;100775.00;;;22.00
20733;BMP180;10527;52.124;5.196;2022-11-03T06:08:19;100761.00;;;22.00
20733;BMP180;10527;52.124;5.196;2022-11-03T06:10:50;100764.00;;;22.00
20733;BMP180;10527;52.124;5.196;2022-11-03T06:13:26;100760.00;;;22.10
20733;BMP180;10527;52.124;5.196;2022-11-03T06:16:04;100748.00;;;22.10
20733;BMP180;10527;52.124;5.196;2022-11-03T06:18:35;100747.00;;;22.10
20733;BMP180;10527;52.124;5.196;2022-11-03T06:21:23;100741.00;;;22.10
20733;BMP180;10527;52.124;5.196;2022-11-03T06:23:54;100748.00;;;22.10
20733;BMP180;10527;52.124;5.196;2022-11-03T06:26:26;100742.00;;;22.10
20733;BMP180;10527;52.124;5.196;2022-11-03T06:28:55;100745.00;;;22.10
20733;BMP180;10527;52.124;5.196;2022-11-03T06:31:30;100738.00;;;22.20
20733;BMP180;10527;52.124;5.196;2022-11-03T06:33:58;100739.00;;;22.20
20733;BMP180;10527;52.124;5.196;2022-11-03T06:36:30;100736.00;;;22.20
20733;BMP180;10527;52.124;5.196;2022-11-03T06:39:10;100731.00;;;22.20
20733;BMP180;10527;52.124;5.196;2022-11-03T06:41:40;100733.00;;;22.20
20733;BMP180;10527;52.124;5.196;2022-11-03T06:44:25;100729.00;;;22.20
20733;BMP180;10527;52.124;5.196;2022-11-03T06:47:00;100726.00;;;22.20
20733;BMP180;10527;52.124;5.196;2022-11-03T06:49:34;100724.00;;;22.20
20733;BMP180;10527;52.124;5.196;2022-11-03T06:52:19;100718.00;;;22.20
20733;BMP180;10527;52.124;5.196;2022-11-03T06:55:13;100720.00;;;22.20
20733;BMP180;10527;52.124;5.196;2022-11-03T06:57:57;100725.00;;;22.20
20733;BMP180;10527;52.124;5.196;2022-11-03T07:00:27;100715.00;;;22.20
20733;BMP180;10527;52.124;5.196;2022-11-03T07:03:23;100718.00;;;22.20
20733;BMP180;10527;52.124;5.196;2022-11-03T07:05:59;100716.00;;;22.20
20733;BMP180;10527;52.124;5.196;2022-11-03T07:08:32;100719.00;;;22.20
20733;BMP180;10527;52.124;5.196;2022-11-03T07:11:38;100719.00;;;22.30
20733;BMP180;10527;52.124;5.196;2022-11-03T07:14:19;100718.00;;;22.30
20733;BMP180;10527;52.124;5.196;2022-11-03T07:16:56;100713.00;;;22.30
20733;BMP180;10527;52.124;5.196;2022-11-03T07:19:29;100714.00;;;22.30
20733;BMP180;10527;52.124;5.196;2022-11-03T07:22:01;100714.00;;;22.30
20733;BMP180;10527;52.124;5.196;2022-11-03T07:24:39;100719.00;;;22.40
20733;BMP180;10527;52.124;5.196;2022-11-03T07:27:27;100716.00;;;22.40
20733;BMP180;10527;52.124;5.196;2022-11-03T07:30:34;100714.00;;;22.40
20733;BMP180;10527;52.124;5.196;2022-11-03T07:33:18;100707.00;;;22.40
20733;BMP180;10527;52.124;5.196;2022-11-03T07:35:47;100711.00;;;22.40
20733;BMP180;10527;52.124;5.196;2022-11-03T07:38:35;100712.00;;;22.40
20733;BMP180;10527;52.124;5.196;2022-11-03T07:41:03;100699.00;;;22.40
20733;BMP180;10527;52.124;5.196;2022-11-03T07:43:33;100706.00;;;22.50
20733;BMP180;10527;52.124;5.196;2022-11-03T07:46:05;100708.00;;;22.50
20733;BMP180;10527;52.124;5.196;2022-11-03T07:48:44;100702.00;;;22.50
20733;BMP180;10527;52.124;5.196;2022-11-03T07:51:31;100694.00;;;22.50
20733;BMP180;10527;52.124;5.196;2022-11-03T07:56:40;100696.00;;;22.60
20733;BMP180;10527;52.124;5.196;2022-11-03T08:01:40;100689.00;;;22.60
20733;BMP180;10527;52.124;5.196;2022-11-03T08:04:12;100694.00;;;22.70
20733;BMP180;10527;52.124;5.196;2022-11-03T08:06:43;100685.00;;;22.70
20733;BMP180;10527;52.124;5.196;2022-11-03T08:09:10;100683.00;;;22.70
20733;BMP180;10527;52.124;5.196;2022-11-03T08:11:37;100687.00;;;22.70
20733;BMP180;10527;52.124;5.196;2022-11-03T08:14:04;100680.00;;;22.70
20733;BMP180;10527;52.124;5.196;2022-11-03T08:16:30;100672.00;;;22.70
20733;BMP180;10527;52.124;5.196;2022-11-03T08:18:57;100674.00;;;22.70
20733;BMP180;10527;52.124;5.196;2022-11-03T08:21:24;100672.00;;;22.70
20733;BMP180;10527;52.124;5.196;2022-11-03T08:23:51;100677.00;;;22.80
20733;BMP180;10527;52.124;5.196;2022-11-03T08:26:18;100662.00;;;22.80
20733;BMP180;10527;52.124;5.196;2022-11-03T08:28:45;100658.00;;;22.80
20733;BMP180;10527;52.124;5.196;2022-11-03T08:31:12;100645.00;;;22.80
20733;BMP180;10527;52.124;5.196;2022-11-03T08:33:39;100650.00;;;22.90
20733;BMP180;10527;52.124;5.196;2022-11-03T08:36:07;100648.00;;;22.90
20733;BMP180;10527;52.124;5.196;2022-11-03T08:38:35;100635.00;;;22.90
20733;BMP180;10527;52.124;5.196;2022-11-03T08:41:03;100628.00;;;23.00
20733;BMP180;10527;52.124;5.196;2022-11-03T08:43:32;100623.00;;;23.00
20733;BMP180;10527;52.124;5.196;2022-11-03T08:46:01;100628.00;;;23.00
20733;BMP180;10527;52.124;5.196;2022-11-03T08:48:38;100615.00;;;23.00
20733;BMP180;10527;52.124;5.196;2022-11-03T08:51:05;100606.00;;;23.00
20733;BMP180;10527;52.124;5.196;2022-11-03T08:53:35;100603.00;;;23.00
20733;BMP180;10527;52.124;5.196;2022-11-03T08:56:02;100600.00;;;23.10
20733;BMP180;10527;52.124;5.196;2022-11-03T08:58:28;100600.00;;;23.10
20733;BMP180;10527;52.124;5.196;2022-11-03T09:00:55;100578.00;;;23.10
20733;BMP180;10527;52.124;5.196;2022-11-03T09:03:22;100590.00;;;23.10
20733;BMP180;10527;52.124;5.196;2022-11-03T09:05:49;100565.00;;;23.10
20733;BMP180;10527;52.124;5.196;2022-11-03T09:08:16;100563.00;;;23.20
20733;BMP180;10527;52.124;5.196;2022-11-03T09:11:03;100559.00;;;23.20
20733;BMP180;10527;52.124;5.196;2022-11-03T09:13:30;100554.00;;;23.20
20733;BMP180;10527;52.124;5.196;2022-11-03T09:15:56;100546.00;;;23.20
20733;BMP180;10527;52.124;5.196;2022-11-03T09:18:23;100541.00;;;23.30
20733;BMP180;10527;52.124;5.196;2022-11-03T09:20:50;100533.00;;;23.30
20733;BMP180;10527;52.124;5.196;2022-11-03T09:23:16;100531.00;;;23.30
20733;BMP180;10527;52.124;5.196;2022-11-03T09:25:43;100529.00;;;23.40
20733;BMP180;10527;52.124;5.196;2022-11-03T09:28:10;100526.00;;;23.40
20733;BMP180;10527;52.124;5.196;2022-11-03T09:30:37;100522.00;;;23.40
20733;BMP180;10527;52.124;5.196;2022-11-03T09:33:03;100504.00;;;23.50
20733;BMP180;10527;52.124;5.196;2022-11-03T09:35:30;100504.00;;;23.50
20733;BMP180;10527;52.124;5.196;2022-11-03T09:37:57;100499.00;;;23.50
20733;BMP180;10527;52.124;5.196;2022-11-03T09:40:24;100496.00;;;23.60
20733;BMP180;10527;52.124;5.196;2022-11-03T09:42:51;100490.00;;;23.60
20733;BMP180;10527;52.124;5.196;2022-11-03T09:45:19;100478.00;;;23.60
20733;BMP180;10527;52.124;5.196;2022-11-03T09:47:46;100476.00;;;23.60
20733;BMP180;10527;52.124;5.196;2022-11-03T09:50:17;100477.00;;;23.60
20733;BMP180;10527;52.124;5.196;2022-11-03T09:52:48;100471.00;;;23.60
20733;BMP180;10527;52.124;5.196;2022-11-03T09:55:25;100460.00;;;23.70
20733;BMP180;10527;52.124;5.196;2022-11-03T09:58:01;100465.00;;;23.70
20733;BMP180;10527;52.124;5.196;2022-11-03T10:00:35;100458.00;;;23.70
20733;BMP180;10527;52.124;5.196;2022-11-03T10:03:02;100445.00;;;23.70
20733;BMP180;10527;52.124;5.196;2022-11-03T10:05:32;100438.00;;;23.70
20733;BMP180;10527;52.124;5.196;2022-11-03T10:08:04;100434.00;;;23.80
20733;BMP180;10527;52.124;5.196;2022-11-03T10:10:33;100430.00;;;23.80
20733;BMP180;10527;52.124;5.196;2022-11-03T10:13:04;100424.00;;;23.80
20733;BMP180;10527;52.124;5.196;2022-11-03T10:15:35;100430.00;;;23.80
20733;BMP180;10527;52.124;5.196;2022-11-03T10:18:01;100423.00;;;23.80
20733;BMP180;10527;52.124;5.196;2022-11-03T10:20:28;100422.00;;;23.80
20733;BMP180;10527;52.124;5.196;2022-11-03T10:22:55;100422.00;;;23.80
20733;BMP180;10527;52.124;5.196;2022-11-03T10:25:44;100419.00;;;23.90
20733;BMP180;10527;52.124;5.196;2022-11-03T10:28:23;100421.00;;;23.90
20733;BMP180;10527;52.124;5.196;2022-11-03T10:31:00;100406.00;;;23.90
20733;BMP180;10527;52.124;5.196;2022-11-03T10:33:58;100399.00;;;23.90
20733;BMP180;10527;52.124;5.196;2022-11-03T10:36:30;100395.00;;;23.90
20733;BMP180;10527;52.124;5.196;2022-11-03T10:38:58;100383.00;;;23.90
20733;BMP180;10527;52.124;5.196;2022-11-03T10:41:30;100388.00;;;24.00
20733;BMP180;10527;52.124;5.196;2022-11-03T10:46:39;100374.00;;;24.00
20733;BMP180;10527;52.124;5.196;2022-11-03T10:49:18;100369.00;;;24.00
20733;BMP180;10527;52.124;5.196;2022-11-03T10:51:51;100367.00;;;24.10
20733;BMP180;10527;52.124;5.196;2022-11-03T10:54:22;100344.00;;;24.10
20733;BMP180;10527;52.124;5.196;2022-11-03T10:56:50;100341.00;;;24.10
20733;BMP180;10527;52.124;5.196;2022-11-03T10:59:21;100341.00;;;24.10
20733;BMP180;10527;52.124;5.196;2022-11-03T11:01:50;100338.00;;;24.10
20733;BMP180;10527;52.124;5.196;2022-11-03T11:04:19;100335.00;;;24.20
20733;BMP180;10527;52.124;5.196;2022-11-03T11:06:47;100322.00;;;24.20
20733;BMP180;10527;52.124;5.196;2022-11-03T11:09:23;100331.00;;;24.20
20733;BMP180;10527;52.124;5.196;2022-11-03T11:12:25;100325.00;;;24.20
20733;BMP180;10527;52.124;5.196;2022-11-03T11:15:01;100335.00;;;24.20
20733;BMP180;10527;52.124;5.196;2022-11-03T11:17:46;100332.00;;;24.20
20733;BMP180;10527;52.124;5.196;2022-11-03T11:22:51;100317.00;;;24.20
20733;BMP180;10527;52.124;5.196;2022-11-03T11:25:18;100326.00;;;24.20
20733;BMP180;10527;52.124;5.196;2022-11-03T11:27:53;100313.00;;;24.20
20733;BMP180;10527;52.124;5.196;2022-11-03T11:33:29;100296.00;;;24.30
20733;BMP180;10527;52.124;5.196;2022-11-03T11:41:14;100283.00;;;24.40
20733;BMP180;10527;52.124;5.196;2022-11-03T11:43:41;100273.00;;;24.40
20733;BMP180;10527;52.124;5.196;2022-11-03T11:51:34;100267.00;;;24.60
20733;BMP180;10527;52.124;5.196;2022-11-03T11:54:11;100264.00;;;24.60
20733;BMP180;10527;52.124;5.196;2022-11-03T11:56:46;100258.00;;;24.70
20733;BMP180;10527;52.124;5.196;2022-11-03T11:59:21;100235.00;;;24.80
20733;BMP180;10527;52.124;5.196;2022-11-03T12:01:54;100229.00;;;24.80
20733;BMP180;10527;52.124;5.196;2022-11-03T12:04:26;100217.00;;;24.90
20733;BMP180;10527;52.124;5.196;2022-11-03T12:06:55;100213.00;;;24.90
20733;BMP180;10527;52.124;5.196;2022-11-03T12:09:27;100219.00;;;24.90
20733;BMP180;10527;52.124;5.196;2022-11-03T12:11:59;100211.00;;;25.00
20733;BMP180;10527;52.124;5.196;2022-11-03T12:14:36;100199.00;;;25.00
20733;BMP180;10527;52.124;5.196;2022-11-03T12:19:47;100190.00;;;25.00
20733;BMP180;10527;52.124;5.196;2022-11-03T12:25:05;100171.00;;;25.10
20733;BMP180;10527;52.124;5.196;2022-11-03T12:30:11;100176.00;;;25.20
20733;BMP180;10527;52.124;5.196;2022-11-03T12:32:39;100175.00;;;25.20
20733;BMP180;10527;52.124;5.196;2022-11-03T12:35:08;100169.00;;;25.20
20733;BMP180;10527;52.124;5.196;2022-11-03T12:37:36;100176.00;;;25.20
20733;BMP180;10527;52.124;5.196;2022-11-03T12:40:05;100165.00;;;25.20
20733;BMP180;10527;52.124;5.196;2022-11-03T12:42:32;100163.00;;;25.20
20733;BMP180;10527;52.124;5.196;2022-11-03T12:45:00;100160.00;;;25.20
20733;BMP180;10527;52.124;5.196;2022-11-03T12:47:27;100150.00;;;25.20
20733;BMP180;10527;52.124;5.196;2022-11-03T12:49:54;100147.00;;;25.20
20733;BMP180;10527;52.124;5.196;2022-11-03T12:52:21;100137.00;;;25.20
20733;BMP180;10527;52.124;5.196;2022-11-03T12:54:48;100134.00;;;25.20
20733;BMP180;10527;52.124;5.196;2022-11-03T12:57:15;100129.00;;;25.20
20733;BMP180;10527;52.124;5.196;2022-11-03T12:59:42;100123.00;;;25.30
20733;BMP180;10527;52.124;5.196;2022-11-03T13:02:09;100115.00;;;25.30
20733;BMP180;10527;52.124;5.196;2022-11-03T13:04:37;100105.00;;;25.30
20733;BMP180;10527;52.124;5.196;2022-11-03T13:07:04;100101.00;;;25.40
20733;BMP180;10527;52.124;5.196;2022-11-03T13:09:31;100091.00;;;25.50
20733;BMP180;10527;52.124;5.196;2022-11-03T13:11:58;100079.00;;;25.50
20733;BMP180;10527;52.124;5.196;2022-11-03T13:14:43;100075.00;;;25.60
20733;BMP180;10527;52.124;5.196;2022-11-03T13:17:14;100069.00;;;25.70
20733;BMP180;10527;52.124;5.196;2022-11-03T13:19:41;100079.00;;;25.70
20733;BMP180;10527;52.124;5.196;2022-11-03T13:22:07;100065.00;;;25.70
20733;BMP180;10527;52.124;5.196;2022-11-03T13:24:34;100063.00;;;25.80
20733;BMP180;10527;52.124;5.196;2022-11-03T13:27:01;100067.00;;;25.80
20733;BMP180;10527;52.124;5.196;2022-11-03T13:29:28;100069.00;;;25.70
20733;BMP180;10527;52.124;5.196;2022-11-03T13:32:02;100049.00;;;25.70
20733;BMP180;10527;52.124;5.196;2022-11-03T13:34:29;100043.00;;;25.70
20733;BMP180;10527;52.124;5.196;2022-11-03T13:36:56;100023.00;;;25.70
20733;BMP180;10527;52.124;5.196;2022-11-03T13:39:24;100016.00;;;25.70
20733;BMP180;10527;52.124;5.196;2022-11-03T13:41:51;100023.00;;;25.70
20733;BMP180;10527;52.124;5.196;2022-11-03T13:44:17;100018.00;;;25.70
20733;BMP180;10527;52.124;5.196;2022-11-03T13:46:44;99999.00;;;25.70
20733;BMP180;10527;52.124;5.196;2022-11-03T13:49:11;100004.00;;;25.70
20733;BMP180;10527;52.124;5.196;2022-11-03T13:51:58;100002.00;;;25.70
20733;BMP180;10527;52.124;5.196;2022-11-03T13:54:24;100007.00;;;25.70
20733;BMP180;10527;52.124;5.196;2022-11-03T13:57:11;100007.00;;;25.70
20733;BMP180;10527;52.124;5.196;2022-11-03T13:59:58;100016.00;;;25.60
20733;BMP180;10527;52.124;5.196;2022-11-03T14:02:30;100005.00;;;25.60
20733;BMP180;10527;52.124;5.196;2022-11-03T14:05:18;99985.00;;;25.60
20733;BMP180;10527;52.124;5.196;2022-11-03T14:07:45;99979.00;;;25.60
20733;BMP180;10527;52.124;5.196;2022-11-03T14:10:12;99962.00;;;25.60
20733;BMP180;10527;52.124;5.196;2022-11-03T14:12:38;99965.00;;;25.60
20733;BMP180;10527;52.124;5.196;2022-11-03T14:15:09;99968.00;;;25.60
20733;BMP180;10527;52.124;5.196;2022-11-03T14:17:38;99968.00;;;25.60
20733;BMP180;10527;52.124;5.196;2022-11-03T14:20:10;99971.00;;;25.60
20733;BMP180;10527;52.124;5.196;2022-11-03T14:22:38;99966.00;;;25.60
20733;BMP180;10527;52.124;5.196;2022-11-03T14:25:06;99960.00;;;25.60
20733;BMP180;10527;52.124;5.196;2022-11-03T14:27:33;99959.00;;;25.50
20733;BMP180;10527;52.124;5.196;2022-11-03T14:30:00;99949.00;;;25.50
20733;BMP180;10527;52.124;5.196;2022-11-03T14:32:27;99951.00;;;25.50
20733;BMP180;10527;52.124;5.196;2022-11-03T14:34:54;99941.00;;;25.50
20733;BMP180;10527;52.124;5.196;2022-11-03T14:37:21;99945.00;;;25.50
20733;BMP180;10527;52.124;5.196;2022-11-03T14:39:51;99939.00;;;25.50
20733;BMP180;10527;52.124;5.196;2022-11-03T14:42:18;99945.00;;;25.40
20733;BMP180;10527;52.124;5.196;2022-11-03T14:44:46;99950.00;;;25.40
20733;BMP180;10527;52.124;5.196;2022-11-03T14:47:16;99956.00;;;25.40
20733;BMP180;10527;52.124;5.196;2022-11-03T14:49:44;99950.00;;;25.40
20733;BMP180;10527;52.124;5.196;2022-11-03T14:52:12;99951.00;;;25.30
20733;BMP180;10527;52.124;5.196;2022-11-03T14:54:39;99951.00;;;25.30
20733;BMP180;10527;52.124;5.196;2022-11-03T14:57:06;99948.00;;;25.30
20733;BMP180;10527;52.124;5.196;2022-11-03T14:59:33;99932.00;;;25.30
20733;BMP180;10527;52.124;5.196;2022-11-03T15:02:02;99928.00;;;25.30
20733;BMP180;10527;52.124;5.196;2022-11-03T15:04:29;99918.00;;;25.30
20733;BMP180;10527;52.124;5.196;2022-11-03T15:06:56;99929.00;;;25.30
20733;BMP180;10527;52.124;5.196;2022-11-03T15:09:23;99924.00;;;25.20
20733;BMP180;10527;52.124;5.196;2022-11-03T15:11:49;99924.00;;;25.20
20733;BMP180;10527;52.124;5.196;2022-11-03T15:14:16;99919.00;;;25.20